createdAt,value
2019-04-05T03:07:15.156Z,23.3
2019-04-05T03:08:05.428Z,23.3
2019-04-05T03:09:10.442Z,23.3
2019-04-05T03:09:45.864Z,23.2
2019-04-05T03:10:36.129Z,23.2
2019-04-05T03:11:25.595Z,23.3
2019-04-05T03:12:18.728Z,23.2
2019-04-05T03:13:06.111Z,23.1
2019-04-05T03:13:56.185Z,23.1
2019-04-05T03:14:46.083Z,23
2019-04-05T03:15:35.610Z,23
2019-04-05T03:16:45.319Z,22.9
2019-04-05T03:17:16.096Z,22.9
2019-04-05T03:18:06.223Z,22.9
2019-04-05T03:18:56.344Z,22.8
2019-04-05T03:19:46.036Z,22.8
2019-04-05T03:20:36.297Z,22.8
2019-04-05T03:21:26.433Z,22.8
2019-04-05T03:22:16.132Z,22.7
2019-04-05T03:23:06.871Z,22.7
2019-04-05T03:23:57.198Z,22.7
2019-04-05T03:24:47.163Z,22.6
2019-04-05T03:25:37.113Z,22.6
2019-04-05T03:26:27.324Z,22.6
2019-04-05T03:28:07.123Z,22.7
2019-04-05T03:28:57.463Z,22.7
2019-04-05T03:29:47.229Z,22.6
2019-04-05T03:30:37.705Z,22.6
2019-04-05T03:31:33.569Z,22.6
2019-04-05T03:32:18.030Z,22.6
2019-04-05T03:33:07.688Z,22.6
2019-04-05T03:33:58.097Z,22.5
2019-04-05T03:34:48.815Z,22.5
2019-04-05T03:35:37.869Z,22.4
2019-04-05T03:36:26.782Z,22.4
2019-04-05T03:37:17.272Z,22.4
2019-04-05T03:38:08.109Z,22.3
2019-04-05T03:38:57.192Z,22.3
2019-04-05T03:39:48.504Z,22.3
2019-04-05T03:40:37.638Z,22.3
2019-04-05T03:41:27.882Z,22.3
2019-04-05T03:42:17.938Z,22.2
2019-04-05T03:43:07.002Z,22.2
2019-04-05T03:43:57.916Z,22.2
2019-04-05T03:44:47.847Z,22.1
2019-04-05T03:45:38.104Z,22.1
2019-04-05T03:46:27.699Z,22.1
2019-04-05T03:47:18.534Z,22.1
2019-04-05T03:48:07.944Z,22
2019-04-05T03:48:59.208Z,22
2019-04-05T03:49:48.511Z,22
2019-04-05T03:50:38.093Z,22
2019-04-05T03:51:28.220Z,21.9
2019-04-05T03:52:18.686Z,21.9
2019-04-05T03:53:08.758Z,21.9
2019-04-05T03:53:59.591Z,21.9
2019-04-05T03:54:49.067Z,21.9
2019-04-05T03:55:38.626Z,21.8
2019-04-05T03:56:29.006Z,21.8
2019-04-05T03:57:19.283Z,21.8
2019-04-05T03:58:08.713Z,21.8
2019-04-05T03:58:58.875Z,21.8
2019-04-05T03:59:48.650Z,21.7
2019-04-05T04:00:39.846Z,21.7
2019-04-05T04:01:29.043Z,21.7
2019-04-05T04:02:19.079Z,21.6
2019-04-05T04:03:08.879Z,21.6
2019-04-05T04:03:58.702Z,21.6
2019-04-05T04:05:03.828Z,21.6
2019-04-05T04:05:39.282Z,21.6
2019-04-05T04:06:29.430Z,21.6
2019-04-05T04:07:19.620Z,21.5
2019-04-05T04:08:09.723Z,21.5
2019-04-05T04:08:58.644Z,21.5
2019-04-05T04:09:49.986Z,21.4
2019-04-05T04:10:39.686Z,21.4
2019-04-05T04:11:29.783Z,21.4
2019-04-05T04:12:19.881Z,21.4
2019-04-05T04:13:10.543Z,21.4
2019-04-05T04:14:00.710Z,21.4
2019-04-05T04:14:49.709Z,21.4
2019-04-05T04:15:40.625Z,21.3
2019-04-05T04:16:30.390Z,21.3
2019-04-05T04:17:19.493Z,21.3
2019-04-05T04:18:10.740Z,21.3
2019-04-05T04:19:01.122Z,21.3
2019-04-05T04:19:51.153Z,21.3
2019-04-05T04:20:41.314Z,21.3
2019-04-05T04:21:30.812Z,21.2
2019-04-05T04:22:20.352Z,21.2
2019-04-05T04:23:11.435Z,21.2
2019-04-05T04:24:01.660Z,21.2
2019-04-05T04:28:11.707Z,21.1
2019-04-05T04:29:02.407Z,21.1
2019-04-05T04:29:51.303Z,21.1
2019-04-05T04:30:41.879Z,21.1
2019-04-05T04:31:32.284Z,21.1
2019-04-05T04:32:22.685Z,21
2019-04-05T04:33:12.454Z,21
2019-04-05T04:34:02.474Z,21
2019-04-05T04:34:51.954Z,21
2019-04-05T04:35:57.247Z,21
2019-04-05T04:36:31.804Z,20.9
2019-04-05T04:37:22.126Z,20.9
2019-04-05T04:38:13.267Z,20.9
2019-04-05T04:39:02.174Z,20.9
2019-04-05T04:39:52.497Z,20.9
2019-04-05T04:40:42.649Z,20.9
2019-04-05T04:41:37.314Z,20.9
2019-04-05T04:42:23.276Z,20.9
2019-04-05T04:43:12.559Z,20.9
2019-04-05T04:44:03.454Z,20.8
2019-04-05T04:44:53.428Z,20.8
2019-04-05T04:45:42.389Z,20.8
2019-04-05T04:46:33.252Z,20.8
2019-04-05T04:47:34.613Z,20.8
2019-04-05T04:48:13.733Z,20.8
2019-04-05T04:49:03.481Z,20.8
2019-04-05T04:49:53.483Z,20.8
2019-04-05T04:50:42.962Z,20.8
2019-04-05T04:51:33.532Z,20.7
2019-04-05T04:52:38.275Z,20.7
2019-04-05T04:53:13.657Z,20.7
2019-04-05T04:54:03.485Z,20.7
2019-04-05T04:54:54.054Z,20.7
2019-04-05T04:55:44.172Z,20.7
2019-04-05T04:56:33.617Z,20.7
2019-04-05T04:57:24.245Z,20.7
2019-04-05T04:58:27.613Z,20.7
2019-04-05T04:59:03.512Z,20.6
2019-04-05T04:59:53.879Z,20.6
2019-04-05T05:00:43.670Z,20.6
2019-04-05T05:01:33.532Z,20.6
2019-04-05T05:02:24.641Z,20.6
2019-04-05T05:03:13.655Z,20.6
2019-04-05T05:04:04.552Z,20.6
2019-04-05T05:04:54.333Z,20.6
2019-04-05T05:05:44.607Z,20.6
2019-04-05T05:06:34.388Z,20.5
2019-04-05T05:07:24.699Z,20.6
2019-04-05T05:08:14.509Z,20.5
2019-04-05T05:09:04.864Z,20.5
2019-04-05T05:09:54.399Z,20.5
2019-04-05T05:10:44.452Z,20.5
2019-04-05T05:11:33.687Z,20.5
2019-04-05T05:12:24.019Z,20.5
2019-04-05T05:13:14.166Z,20.5
2019-04-05T05:14:05.457Z,20.4
2019-04-05T05:14:53.926Z,20.5
2019-04-05T05:15:45.031Z,20.4
2019-04-05T05:16:33.849Z,20.4
2019-04-05T05:17:37.336Z,20.4
2019-04-05T05:18:14.448Z,20.4
2019-04-05T05:19:04.509Z,20.4
2019-04-05T05:19:54.856Z,20.4
2019-04-05T05:20:47.076Z,20.4
2019-04-05T05:21:34.976Z,20.4
2019-04-05T05:22:25.046Z,20.4
2019-04-05T05:23:15.151Z,20.4
2019-04-05T05:24:05.216Z,20.4
2019-04-05T05:24:55.750Z,20.4
2019-04-05T05:25:48.853Z,20.4
2019-04-05T05:26:36.114Z,20.4
2019-04-05T05:27:25.672Z,20.3
2019-04-05T05:28:16.483Z,20.4
2019-04-05T05:29:05.853Z,20.3
2019-04-05T05:29:55.855Z,20.3
2019-04-05T05:30:46.035Z,20.3
2019-04-05T05:31:36.146Z,20.3
2019-04-05T05:32:25.672Z,20.3
2019-04-05T05:33:16.011Z,20.3
2019-04-05T05:34:05.532Z,20.3
2019-04-05T05:35:09.624Z,20.3
2019-04-05T05:35:46.480Z,20.3
2019-04-05T05:36:36.793Z,20.3
2019-04-05T05:37:26.047Z,20.3
2019-04-05T05:38:31.614Z,20.3
2019-04-05T05:39:07.304Z,20.3
2019-04-05T05:39:56.751Z,20.3
2019-04-05T05:40:47.105Z,20.3
2019-04-05T05:41:37.208Z,20.3
2019-04-05T05:42:26.667Z,20.3
2019-04-05T05:43:17.560Z,20.3
2019-04-05T05:44:07.623Z,20.3
2019-04-05T05:44:57.452Z,20.3
2019-04-05T05:45:47.002Z,20.3
2019-04-05T05:46:37.322Z,20.3
2019-04-05T05:47:27.384Z,20.3
2019-04-05T05:48:16.884Z,20.3
2019-04-05T05:49:07.495Z,20.3
2019-04-05T05:49:57.795Z,20.3
2019-04-05T05:50:47.782Z,20.3
2019-04-05T05:51:38.225Z,20.2
2019-04-05T05:52:28.173Z,20.3
2019-04-05T05:53:17.212Z,20.3
2019-04-05T05:54:08.131Z,20.3
2019-04-05T05:54:57.143Z,20.3
2019-04-05T05:55:47.930Z,20.3
2019-04-05T05:56:38.077Z,20.2
2019-04-05T05:57:28.573Z,20.2
2019-04-05T05:58:18.078Z,20.2
2019-04-05T05:59:08.463Z,20.2
2019-04-05T06:00:02.745Z,20.2
2019-04-05T06:00:48.553Z,20.2
2019-04-05T06:01:37.794Z,20.2
2019-04-05T06:02:27.904Z,20.2
2019-04-05T06:05:14.376Z,20.2
2019-04-05T06:06:11.351Z,20.2
2019-04-05T06:06:55.460Z,20.2
2019-04-05T06:07:45.074Z,20.2
2019-04-05T06:08:37.021Z,20.2
2019-04-05T06:09:25.161Z,20.2
2019-04-05T06:10:16.375Z,20.2
2019-04-05T06:11:05.259Z,20.2
2019-04-05T06:11:56.466Z,20.2
2019-04-05T06:12:46.175Z,20.2
2019-04-05T06:13:36.335Z,20.2
2019-04-05T06:14:26.948Z,20.2
2019-04-05T06:15:16.347Z,20.2
2019-04-05T06:16:07.003Z,20.1
2019-04-05T06:17:11.968Z,20.1
2019-04-05T06:17:46.903Z,20.1
2019-04-05T06:18:37.135Z,20.2
2019-04-05T06:19:26.990Z,20.1
2019-04-05T06:20:16.510Z,20.1
2019-04-05T06:21:10.062Z,20.1
2019-04-05T06:21:57.370Z,20.2
2019-04-05T06:22:49.607Z,20.1
2019-04-05T06:23:41.062Z,20.1
2019-04-05T06:24:27.569Z,20.1
2019-04-05T06:25:17.830Z,20.1
2019-04-05T06:26:07.450Z,20.1
2019-04-05T06:26:57.475Z,20.1
2019-04-05T06:27:47.512Z,20.1
2019-04-05T06:28:38.459Z,20.1
2019-04-05T06:29:27.677Z,20.1
2019-04-05T06:30:17.490Z,20.1
2019-04-05T06:31:07.894Z,20.1
2019-04-05T06:31:57.872Z,20.1
2019-04-05T06:32:47.402Z,20.1
2019-04-05T06:33:42.634Z,20.1
2019-04-05T06:34:42.110Z,20.1
2019-04-05T06:35:17.754Z,20.1
2019-04-05T06:36:07.606Z,20.1
2019-04-05T06:36:58.497Z,20.1
2019-04-05T06:37:47.765Z,20.1
2019-04-05T06:38:37.201Z,20.1
2019-04-05T06:39:27.896Z,20.1
2019-04-05T06:40:18.194Z,20.1
2019-04-05T06:41:08.375Z,20.1
2019-04-05T06:41:57.967Z,20.1
2019-04-05T06:42:48.551Z,20.1
2019-04-05T06:43:37.873Z,20.1
2019-04-05T06:44:31.801Z,20.1
2019-04-05T06:45:18.608Z,20.1
2019-04-05T06:46:10.752Z,20.1
2019-04-05T06:46:58.549Z,20.1
2019-04-05T06:47:48.496Z,20.1
2019-04-05T06:48:39.349Z,20.1
2019-04-05T06:49:29.101Z,20.1
2019-04-05T06:50:18.289Z,20.1
2019-04-05T06:51:08.702Z,20.1
2019-04-05T06:51:58.721Z,20.1
2019-04-05T06:53:03.977Z,20.1
2019-04-05T06:53:39.368Z,20.1
2019-04-05T06:54:29.891Z,20.1
2019-04-05T06:55:19.776Z,20.1
2019-04-05T06:56:09.573Z,20.1
2019-04-05T06:56:59.628Z,20.1
2019-04-05T06:57:50.328Z,20.1
2019-04-05T06:58:40.258Z,20.1
2019-04-05T06:59:29.836Z,20.1
2019-04-05T07:00:19.741Z,20.1
2019-04-05T07:01:09.303Z,20.1
2019-04-05T07:02:00.233Z,20.1
2019-04-05T07:02:49.805Z,20.1
2019-04-05T07:05:15.663Z,20.1
2019-04-05T07:06:05.668Z,20.1
2019-04-05T07:06:56.000Z,20.1
2019-04-05T07:07:46.225Z,20.1
2019-04-05T07:08:35.657Z,20.1
2019-04-05T07:09:25.338Z,20.1
2019-04-05T07:10:16.210Z,20.1
2019-04-05T07:11:06.355Z,20.1
2019-04-05T07:11:56.122Z,20.1
2019-04-05T07:12:45.813Z,20.1
2019-04-05T07:13:36.109Z,20.1
2019-04-05T07:14:26.807Z,20.1
2019-04-05T07:15:15.819Z,20.1
2019-04-05T07:16:06.622Z,20.1
2019-04-05T07:16:56.412Z,20.1
2019-04-05T07:17:47.013Z,20.1
2019-04-05T07:18:42.897Z,20.1
2019-04-05T07:19:27.199Z,20.1
2019-04-05T07:20:16.799Z,20.1
2019-04-05T07:21:06.479Z,20.1
2019-04-05T07:21:57.078Z,20.1
2019-04-05T07:22:46.687Z,20.1
2019-04-05T07:23:37.197Z,20.1
2019-04-05T07:24:27.316Z,20.1
2019-04-05T07:25:17.319Z,20.1
2019-04-05T07:26:07.609Z,20.1
2019-04-05T07:26:56.653Z,20.1
2019-04-05T07:27:47.769Z,20.1
2019-04-05T07:28:37.286Z,20.1
2019-04-05T07:29:27.939Z,20.1
2019-04-05T07:30:18.204Z,20
2019-04-05T07:31:07.256Z,20.1
2019-04-05T07:31:57.225Z,20.1
2019-04-05T07:32:47.574Z,20.1
2019-04-05T07:33:37.093Z,20.1
2019-04-05T07:34:28.029Z,20.1
2019-04-05T07:35:18.036Z,20.1
2019-04-05T07:36:10.774Z,20
2019-04-05T07:36:58.211Z,20
2019-04-05T07:37:48.201Z,20
2019-04-05T07:38:37.731Z,20.1
2019-04-05T07:39:28.385Z,20
2019-04-05T07:40:17.827Z,20
2019-04-05T07:41:08.240Z,20
2019-04-05T07:41:57.958Z,20
2019-04-05T07:42:48.623Z,20
2019-04-05T07:43:38.907Z,20
2019-04-05T07:44:28.403Z,20
2019-04-05T07:45:18.470Z,20
2019-04-05T07:46:08.534Z,20
2019-04-05T07:46:58.943Z,20
2019-04-05T07:47:48.935Z,20.1
2019-04-05T07:48:52.334Z,20
2019-04-05T07:49:28.850Z,20
2019-04-05T07:50:18.836Z,20
2019-04-05T07:51:09.447Z,20
2019-04-05T07:51:59.512Z,20
2019-04-05T07:52:49.635Z,20
2019-04-05T07:53:39.632Z,20
2019-04-05T07:54:28.848Z,20
2019-04-05T07:55:18.915Z,20
2019-04-05T07:56:09.269Z,20
2019-04-05T07:56:59.332Z,20
2019-04-05T07:57:49.727Z,20
2019-04-05T07:58:39.172Z,20
2019-04-05T07:59:30.068Z,20
2019-04-05T08:00:34.782Z,20
2019-04-05T08:01:10.167Z,20
2019-04-05T08:01:59.947Z,20
2019-04-05T08:02:49.757Z,20
2019-04-05T08:03:40.097Z,20
2019-04-05T08:04:29.602Z,20
2019-04-05T08:05:19.960Z,20
2019-04-05T08:06:09.992Z,20
2019-04-05T08:07:00.596Z,20
2019-04-05T08:07:50.376Z,20
2019-04-05T08:08:40.705Z,20
2019-04-05T08:09:30.581Z,20
2019-04-05T08:10:23.167Z,20
2019-04-05T08:11:10.479Z,20
2019-04-05T08:12:00.940Z,20
2019-04-05T08:12:50.745Z,20
2019-04-05T08:13:40.300Z,20
2019-04-05T08:14:30.665Z,20
2019-04-05T08:15:20.616Z,19.9
2019-04-05T08:16:11.025Z,20
2019-04-05T08:17:01.015Z,20
2019-04-05T08:17:50.285Z,19.9
2019-04-05T08:18:40.337Z,19.9
2019-04-05T08:19:31.062Z,20
2019-04-05T08:20:21.365Z,20
2019-04-05T08:21:11.349Z,20
2019-04-05T08:22:01.752Z,20
2019-04-05T08:22:50.982Z,19.9
2019-04-05T08:23:41.242Z,19.9
2019-04-05T08:24:31.362Z,20
2019-04-05T08:25:21.085Z,19.9
2019-04-05T08:26:12.014Z,19.9
2019-04-05T08:27:02.085Z,19.9
2019-04-05T08:27:51.837Z,19.9
2019-04-05T08:28:42.205Z,19.9
2019-04-05T08:29:30.895Z,19.9
2019-04-05T08:30:22.305Z,19.9
2019-04-05T08:31:20.257Z,19.9
2019-04-05T08:32:16.617Z,19.9
2019-04-05T08:32:52.483Z,19.9
2019-04-05T08:33:43.664Z,19.9
2019-04-05T08:34:32.656Z,19.9
2019-04-05T08:35:21.821Z,19.9
2019-04-05T08:36:12.204Z,19.9
2019-04-05T08:37:02.474Z,19.9
2019-04-05T08:37:52.529Z,19.9
2019-04-05T08:38:46.084Z,19.9
2019-04-05T08:39:32.165Z,19.9
2019-04-05T08:40:22.461Z,19.9
2019-04-05T08:41:13.076Z,19.9
2019-04-05T08:42:02.303Z,19.9
2019-04-05T08:42:52.398Z,19.9
2019-04-05T08:43:42.193Z,19.9
2019-04-05T08:44:32.825Z,19.9
2019-04-05T08:45:23.119Z,19.9
2019-04-05T08:46:12.873Z,19.9
2019-04-05T08:47:03.310Z,19.9
2019-04-05T08:47:53.104Z,19.9
2019-04-05T08:48:42.832Z,19.9
2019-04-05T08:49:32.846Z,19.9
2019-04-05T08:50:23.714Z,19.9
2019-04-05T08:51:13.580Z,19.9
2019-04-05T08:52:03.350Z,19.9
2019-04-05T08:52:53.141Z,19.9
2019-04-05T08:53:43.395Z,19.9
2019-04-05T08:54:43.470Z,19.9
2019-04-05T08:55:23.824Z,19.9
2019-04-05T08:56:13.535Z,19.9
2019-04-05T08:57:03.675Z,19.9
2019-04-05T08:57:54.682Z,19.9
2019-04-05T08:58:43.785Z,19.9
2019-04-05T08:59:34.210Z,19.9
2019-04-05T09:00:23.910Z,19.9
2019-04-05T09:01:14.624Z,19.9
2019-04-05T09:02:04.032Z,19.9
2019-04-05T09:02:56.377Z,19.9
2019-04-05T09:03:44.170Z,19.9
2019-04-05T09:04:33.392Z,19.9
2019-04-05T09:05:24.292Z,19.9
2019-04-05T09:06:13.781Z,19.9
2019-04-05T09:07:04.409Z,19.9
2019-04-05T09:07:54.820Z,19.9
2019-04-05T09:08:44.890Z,19.9
2019-04-05T09:09:34.647Z,19.9
2019-04-05T09:10:24.206Z,19.9
2019-04-05T09:11:14.784Z,19.9
2019-04-05T09:12:04.787Z,19.9
2019-04-05T09:12:55.397Z,19.9
2019-04-05T09:13:45.672Z,19.9
2019-04-05T09:14:34.983Z,19.9
2019-04-05T09:15:24.731Z,19.9
2019-04-05T09:16:18.589Z,19.9
2019-04-05T09:17:05.859Z,19.9
2019-04-05T09:17:55.438Z,19.9
2019-04-05T09:18:45.504Z,19.9
2019-04-05T09:19:34.869Z,19.9
2019-04-05T09:20:25.716Z,19.9
2019-04-05T09:21:21.011Z,19.9
2019-04-05T09:22:05.179Z,19.9
2019-04-05T09:22:55.254Z,19.9
2019-04-05T09:23:45.929Z,19.9
2019-04-05T09:24:34.864Z,19.8
2019-04-05T09:25:27.089Z,19.8
2019-04-05T09:26:16.061Z,19.9
2019-04-05T09:27:06.134Z,19.8
2019-04-05T09:27:55.993Z,19.8
2019-04-05T09:28:45.758Z,19.8
2019-04-05T09:29:36.325Z,19.9
2019-04-05T09:30:26.356Z,19.9
2019-04-05T09:31:16.761Z,19.9
2019-04-05T09:32:20.873Z,19.8
2019-04-05T09:32:56.005Z,19.8
2019-04-05T09:33:46.361Z,19.9
2019-04-05T09:34:37.093Z,19.8
2019-04-05T09:35:26.500Z,19.8
2019-04-05T09:36:16.846Z,19.9
2019-04-05T09:37:06.326Z,19.8
2019-04-05T09:37:56.084Z,19.9
2019-04-05T09:38:47.046Z,19.8
2019-04-05T09:39:37.033Z,19.8
2019-04-05T09:40:27.610Z,19.8
2019-04-05T09:41:17.150Z,19.8
2019-04-05T09:42:06.706Z,19.8
2019-04-05T09:42:56.808Z,19.8
2019-04-05T09:43:47.386Z,19.8
2019-04-05T09:44:36.983Z,19.8
2019-04-05T09:45:27.462Z,19.9
2019-04-05T09:46:17.801Z,19.8
2019-04-05T09:47:07.033Z,19.8
2019-04-05T09:47:57.647Z,19.8
2019-04-05T09:48:47.975Z,19.8
2019-04-05T09:49:44.297Z,19.8
2019-04-05T09:50:27.314Z,19.8
2019-04-05T09:51:17.760Z,19.8
2019-04-05T09:52:06.621Z,19.8
2019-04-05T09:52:56.162Z,19.8
2019-04-05T09:53:47.308Z,19.8
2019-04-05T09:54:37.912Z,19.8
2019-04-05T09:55:27.689Z,19.8
2019-04-05T09:56:16.653Z,19.8
2019-04-05T09:57:08.113Z,19.8
2019-04-05T09:57:58.074Z,19.8
2019-04-05T09:58:48.190Z,19.8
2019-04-05T09:59:37.894Z,19.8
2019-04-05T10:00:28.841Z,19.8
2019-04-05T10:01:18.076Z,19.8
2019-04-05T10:02:08.712Z,19.8
2019-04-05T10:02:58.824Z,19.8
2019-04-05T10:03:48.578Z,19.8
2019-04-05T10:07:19.675Z,19.8
2019-04-05T10:08:57.049Z,19.8
2019-04-05T10:10:03.914Z,19.8
2019-04-05T12:06:15.328Z,19.6
2019-04-05T12:07:05.180Z,19.6
2019-04-05T12:08:04.054Z,19.6
2019-04-05T12:08:45.058Z,19.6
2019-04-05T12:09:35.872Z,19.6
2019-04-05T12:10:27.011Z,19.6
2019-04-05T12:11:15.984Z,19.6
2019-04-05T12:12:05.624Z,19.6
2019-04-05T12:12:55.597Z,19.6
2019-04-05T12:13:49.399Z,19.6
2019-04-05T12:14:42.104Z,19.6
2019-04-05T12:15:26.334Z,19.6
2019-04-05T12:16:17.754Z,19.6
2019-04-05T12:17:13.616Z,19.6
2019-04-05T12:17:55.926Z,19.6
2019-04-05T12:18:46.319Z,19.6
2019-04-05T12:19:42.669Z,19.6
2019-04-05T12:20:26.362Z,19.6
2019-04-05T12:21:16.462Z,19.6
2019-04-05T12:22:14.158Z,19.6
2019-04-05T12:23:00.309Z,19.6
2019-04-05T12:23:46.466Z,19.6
2019-04-05T12:24:40.279Z,19.6
2019-04-05T12:25:27.374Z,19.6
2019-04-05T12:26:16.509Z,19.6
2019-04-05T12:27:12.001Z,19.6
2019-04-05T12:28:15.108Z,19.6
2019-04-05T12:28:47.231Z,19.6
2019-04-05T12:29:37.053Z,19.6
2019-04-05T12:30:26.844Z,19.6
2019-04-05T12:31:17.730Z,19.6
2019-04-05T12:32:07.305Z,19.6
2019-04-05T12:32:57.612Z,19.6
2019-04-05T12:33:55.333Z,19.6
2019-04-05T12:34:37.148Z,19.6
2019-04-05T12:35:29.761Z,19.6
2019-04-05T12:36:17.215Z,19.6
2019-04-05T12:37:08.141Z,19.6
2019-04-05T12:38:02.891Z,19.6
2019-04-05T12:38:47.990Z,19.6
2019-04-05T12:39:42.680Z,19.6
2019-04-05T12:40:28.355Z,19.6
2019-04-05T12:41:22.048Z,19.6
2019-04-05T12:42:12.127Z,19.6
2019-04-05T12:43:00.588Z,19.6
2019-04-05T12:43:54.620Z,19.6
2019-04-05T12:44:37.567Z,19.6
2019-04-05T12:45:28.720Z,19.6
2019-04-05T12:46:23.255Z,19.6
2019-04-05T12:47:07.790Z,19.6
2019-04-05T12:48:01.548Z,19.6
2019-04-05T12:48:53.057Z,19.6
2019-04-05T12:49:39.027Z,19.6
2019-04-05T12:50:27.718Z,19.6
2019-04-05T12:51:23.342Z,19.6
2019-04-05T12:52:07.642Z,19.6
2019-04-05T12:53:03.000Z,19.6
2019-04-05T12:53:48.875Z,19.6
2019-04-05T12:54:38.849Z,19.6
2019-04-05T12:55:31.829Z,19.6
2019-04-05T12:56:18.695Z,19.6
2019-04-05T12:57:08.600Z,19.6
2019-04-05T12:58:02.713Z,19.6
2019-04-05T12:58:49.725Z,19.6
2019-04-05T12:59:39.522Z,19.6
2019-04-05T13:00:33.462Z,19.6
2019-04-05T13:01:19.665Z,19.6
2019-04-05T13:02:09.427Z,19.6
2019-04-05T13:03:02.032Z,19.6
2019-04-05T13:03:52.947Z,19.6
2019-04-05T13:04:39.860Z,19.6
2019-04-05T13:05:29.729Z,19.6
2019-04-05T13:06:24.821Z,19.6
2019-04-05T13:07:09.777Z,19.6
2019-04-05T13:08:01.744Z,19.6
2019-04-05T13:08:53.679Z,19.6
2019-04-05T13:09:41.093Z,19.6
2019-04-05T13:10:36.811Z,19.6
2019-04-05T13:11:20.978Z,19.6
2019-04-05T13:12:10.302Z,19.6
2019-04-05T13:13:05.152Z,19.5
2019-04-05T13:13:49.408Z,19.6
2019-04-05T13:14:40.859Z,19.6
2019-04-05T13:15:29.019Z,19.6
2019-04-05T13:16:20.152Z,19.6
2019-04-05T13:17:10.289Z,19.6
2019-04-05T13:18:04.896Z,19.6
2019-04-05T13:18:50.677Z,19.5
2019-04-05T13:19:40.981Z,19.6
2019-04-05T13:20:34.730Z,19.6
2019-04-05T13:21:33.551Z,19.5
2019-04-05T13:22:10.881Z,19.6
2019-04-05T13:23:08.171Z,19.5
2019-04-05T13:23:50.753Z,19.5
2019-04-05T13:24:45.556Z,19.5
2019-04-05T13:25:30.948Z,19.6
2019-04-05T13:26:20.961Z,19.6
2019-04-05T13:27:16.283Z,19.6
2019-04-05T13:28:20.445Z,19.5
2019-04-05T13:28:56.089Z,19.6
2019-04-05T13:29:41.525Z,19.5
2019-04-05T13:30:31.865Z,19.5
2019-04-05T13:31:25.455Z,19.5
2019-04-05T13:32:11.878Z,19.5
2019-04-05T13:33:01.137Z,19.5
2019-04-05T13:33:56.627Z,19.6
2019-04-05T13:34:42.065Z,19.5
2019-04-05T13:35:31.585Z,19.5
2019-04-05T13:36:22.513Z,19.5
2019-04-05T13:37:28.457Z,19.6
2019-04-05T13:38:06.489Z,19.5
2019-04-05T13:39:07.040Z,19.5
2019-04-05T13:39:42.576Z,19.6
2019-04-05T13:40:36.665Z,19.5
2019-04-05T13:41:24.857Z,19.5
2019-04-05T13:42:12.979Z,19.5
2019-04-05T13:43:07.469Z,19.5
2019-04-05T13:43:52.412Z,19.6
2019-04-05T13:44:42.516Z,19.5
2019-04-05T13:45:32.359Z,19.5
2019-04-05T13:46:33.164Z,19.5
2019-04-05T13:47:16.092Z,19.4
2019-04-05T13:48:02.755Z,19.5
2019-04-05T13:48:52.821Z,19.5
2019-04-05T13:49:47.767Z,19.5
2019-04-05T13:50:32.939Z,19.5
2019-04-05T13:51:43.399Z,19.5
2019-04-05T13:52:18.139Z,19.5
2019-04-05T13:53:02.866Z,19.5
2019-04-05T13:53:53.828Z,19.5
2019-04-05T13:54:47.101Z,19.5
2019-04-05T13:55:33.606Z,19.5
2019-04-05T13:56:23.913Z,19.5
2019-04-05T13:57:17.324Z,19.5
2019-04-05T13:58:12.016Z,19.5
2019-04-05T13:58:54.196Z,19.5
2019-04-05T13:59:46.347Z,19.4
2019-04-05T14:00:33.940Z,19.5
2019-04-05T14:01:28.738Z,19.5
2019-04-05T14:02:14.293Z,19.5
2019-04-05T14:03:04.146Z,19.5
2019-04-05T14:03:57.153Z,19.5
2019-04-05T14:04:44.519Z,19.5
2019-04-05T14:07:15.268Z,19.5
2019-04-05T14:08:17.833Z,19.5
2019-04-05T14:08:55.083Z,19.5
2019-04-05T14:09:48.223Z,19.5
2019-04-05T14:10:35.818Z,19.5
2019-04-05T14:11:27.758Z,19.5
2019-04-05T14:12:17.573Z,19.5
2019-04-05T14:13:07.572Z,19.4
2019-04-05T14:13:55.721Z,19.4
2019-04-05T14:14:55.188Z,19.5
2019-04-05T14:15:43.640Z,19.5
2019-04-05T14:16:26.480Z,19.5
2019-04-05T14:17:21.050Z,19.4
2019-04-05T14:18:06.345Z,19.5
2019-04-05T14:18:57.342Z,19.5
2019-04-05T14:19:51.041Z,19.5
2019-04-05T14:20:36.223Z,19.4
2019-04-05T14:21:53.731Z,19.4
2019-04-05T14:22:22.094Z,19.5
2019-04-05T14:23:07.964Z,19.4
2019-04-05T14:24:04.077Z,19.5
2019-04-05T14:24:57.083Z,19.4
2019-04-05T14:25:39.447Z,19.5
2019-04-05T14:26:33.353Z,19.5
2019-04-05T14:27:19.398Z,19.5
2019-04-05T14:28:12.665Z,19.4
2019-04-05T14:29:04.820Z,19.4
2019-04-05T14:29:52.687Z,19.4
2019-04-05T14:30:41.245Z,19.4
2019-04-05T14:31:33.707Z,19.4
2019-04-05T14:32:28.828Z,19.4
2019-04-05T14:33:09.853Z,19.4
2019-04-05T14:34:02.253Z,19.4
2019-04-05T14:34:53.677Z,19.4
2019-04-05T14:35:39.985Z,19.4
2019-04-05T14:36:31.013Z,19.4
2019-04-05T14:37:26.645Z,19.4
2019-04-05T14:38:13.735Z,19.4
2019-04-05T14:39:00.512Z,19.4
2019-04-05T14:39:50.002Z,19.4
2019-04-05T14:40:40.632Z,19.4
2019-04-05T14:41:30.647Z,19.4
2019-04-05T14:42:23.045Z,19.4
2019-04-05T14:43:12.723Z,19.4
2019-04-05T14:44:01.345Z,19.4
2019-04-05T14:44:50.121Z,19.4
2019-04-05T14:45:40.772Z,19.5
2019-04-05T14:46:38.209Z,19.4
2019-04-05T14:47:23.144Z,19.4
2019-04-05T14:48:09.842Z,19.4
2019-04-05T14:49:04.339Z,19.4
2019-04-05T14:49:50.789Z,19.4
2019-04-05T14:50:40.819Z,19.4
2019-04-05T14:51:35.754Z,19.4
2019-04-05T14:52:21.159Z,19.4
2019-04-05T14:53:10.931Z,19.4
2019-04-05T14:54:05.389Z,19.4
2019-04-05T14:54:50.912Z,19.4
2019-04-05T14:55:41.314Z,19.4
2019-04-05T14:56:35.979Z,19.4
2019-04-05T14:57:21.851Z,19.4
2019-04-05T14:58:19.676Z,19.4
2019-04-05T14:59:01.956Z,19.4
2019-04-05T14:59:51.321Z,19.4
2019-04-05T15:00:41.821Z,19.4
2019-04-05T15:01:31.591Z,19.4
2019-04-05T15:02:21.649Z,19.4
2019-04-05T15:03:12.066Z,19.4
2019-04-05T15:04:02.066Z,19.4
2019-04-05T15:04:55.206Z,19.4
2019-04-05T15:05:42.473Z,19.4
2019-04-05T15:06:34.176Z,19.4
2019-04-05T15:07:26.863Z,19.4
2019-04-05T15:08:12.428Z,19.4
2019-04-05T15:09:05.161Z,19.4
2019-04-05T15:09:56.263Z,19.4
2019-04-05T15:10:42.516Z,19.4
2019-04-05T15:11:36.350Z,19.4
2019-04-05T15:12:22.348Z,19.4
2019-04-05T15:13:12.172Z,19.4
2019-04-05T15:14:01.939Z,19.4
2019-04-05T15:14:52.648Z,19.4
2019-04-05T15:15:42.330Z,19.4
2019-04-05T15:16:32.761Z,19.4
2019-04-05T15:17:23.800Z,19.4
2019-04-05T15:18:12.225Z,19.4
2019-04-05T15:19:03.135Z,19.4
2019-04-05T15:19:52.615Z,19.4
2019-04-05T15:20:42.760Z,19.4
2019-04-05T15:21:39.551Z,19.4
2019-04-05T15:22:23.093Z,19.4
2019-04-05T15:23:19.722Z,19.4
2019-04-05T15:24:03.777Z,19.4
2019-04-05T15:24:54.722Z,19.4
2019-04-05T15:25:42.871Z,19.4
2019-04-05T15:26:33.953Z,19.4
2019-04-05T15:27:27.604Z,19.4
2019-04-05T15:28:14.055Z,19.4
2019-04-05T15:29:03.685Z,19.4
2019-04-05T15:29:57.432Z,19.4
2019-04-05T15:30:43.910Z,19.4
2019-04-05T15:31:34.389Z,19.4
2019-04-05T15:32:30.609Z,19.4
2019-04-05T15:33:13.917Z,19.4
2019-04-05T15:34:05.713Z,19.4
2019-04-05T15:34:54.293Z,19.4
2019-04-05T15:35:44.072Z,19.4
2019-04-05T15:36:38.352Z,19.4
2019-04-05T15:37:24.181Z,19.4
2019-04-05T15:38:13.979Z,19.4
2019-04-05T15:39:08.413Z,19.4
2019-04-05T15:39:54.404Z,19.4
2019-04-05T15:40:44.249Z,19.4
2019-04-05T15:41:34.759Z,19.4
2019-04-05T15:42:25.137Z,19.4
2019-04-05T15:43:15.180Z,19.4
2019-04-05T15:44:07.477Z,19.4
2019-04-05T15:44:55.241Z,19.4
2019-04-05T15:45:48.096Z,19.4
2019-04-05T15:46:34.904Z,19.4
2019-04-05T15:47:28.501Z,19.4
2019-04-05T15:48:14.629Z,19.4
2019-04-05T15:49:04.886Z,19.4
2019-04-05T15:49:58.541Z,19.4
2019-04-05T15:50:44.407Z,19.4
2019-04-05T15:51:35.235Z,19.4
2019-04-05T15:52:34.088Z,19.4
2019-04-05T15:53:14.720Z,19.4
2019-04-05T15:54:07.658Z,19.4
2019-04-05T15:54:55.291Z,19.4
2019-04-05T15:55:45.041Z,19.4
2019-04-05T15:56:39.703Z,19.4
2019-04-05T15:57:24.616Z,19.4
2019-04-05T15:58:14.886Z,19.4
2019-04-05T15:59:09.491Z,19.4
2019-04-05T15:59:55.261Z,19.3
2019-04-05T16:00:45.784Z,19.3
2019-04-05T16:01:39.838Z,19.4
2019-04-05T16:02:26.082Z,19.3
2019-04-05T16:03:15.613Z,19.4
2019-04-05T16:04:09.716Z,19.4
2019-04-05T16:04:55.201Z,19.3
2019-04-05T16:07:15.015Z,19.3
2019-04-05T16:08:04.825Z,19.4
2019-04-05T16:08:54.814Z,19.4
2019-04-05T16:09:44.602Z,19.3
2019-04-05T16:10:35.219Z,19.4
2019-04-05T16:11:25.542Z,19.4
2019-04-05T16:12:14.775Z,19.4
2019-04-05T16:13:07.897Z,19.3
2019-04-05T16:13:55.517Z,19.3
2019-04-05T16:14:45.507Z,19.4
2019-04-05T16:15:35.292Z,19.4
2019-04-05T16:16:25.687Z,19.4
2019-04-05T16:17:18.232Z,19.3
2019-04-05T16:18:05.192Z,19.3
2019-04-05T16:18:58.003Z,19.3
2019-04-05T16:19:46.695Z,19.3
2019-04-05T16:20:35.447Z,19.3
2019-04-05T16:21:25.789Z,19.3
2019-04-05T16:22:15.769Z,19.3
2019-04-05T16:23:05.324Z,19.3
2019-04-05T16:23:55.914Z,19.3
2019-04-05T16:24:45.991Z,19.3
2019-04-05T16:25:36.587Z,19.3
2019-04-05T16:26:26.578Z,19.3